createdAt,value
2022-12-20T00:00:54.944Z,83.23
2022-12-20T00:03:25.373Z,84.14
2022-12-20T00:05:55.755Z,84.06
2022-12-20T00:08:26.085Z,84.16
2022-12-20T00:10:58.974Z,84.45
2022-12-20T00:13:29.459Z,84.30
2022-12-20T00:16:09.263Z,84.01
2022-12-20T00:18:40.457Z,84.86
2022-12-20T00:21:14.207Z,84.91
2022-12-20T00:23:44.683Z,84.61
2022-12-20T00:26:20.598Z,84.54
2022-12-20T00:28:51.136Z,85.58
2022-12-20T00:31:23.677Z,85.78
2022-12-20T00:33:56.664Z,86.17
2022-12-20T00:36:29.347Z,86.32
2022-12-20T00:39:02.093Z,87.70
2022-12-20T00:41:37.780Z,88.27
2022-12-20T00:44:08.781Z,88.08
2022-12-20T00:46:39.233Z,87.75
2022-12-20T00:49:10.208Z,87.63
2022-12-20T00:51:40.568Z,86.88
2022-12-20T00:54:11.040Z,86.80
2022-12-20T00:56:43.919Z,86.82
2022-12-20T00:59:14.165Z,86.95
2022-12-20T01:01:45.401Z,87.83
2022-12-20T01:04:15.831Z,88.18
2022-12-20T01:06:46.500Z,88.15
2022-12-20T01:09:17.081Z,88.15
2022-12-20T01:11:50.077Z,87.99
2022-12-20T01:14:20.700Z,87.70
2022-12-20T01:16:51.505Z,87.64
2022-12-20T01:19:22.844Z,88.03
2022-12-20T01:21:53.507Z,88.03
2022-12-20T01:24:24.272Z,88.25
2022-12-20T01:26:57.368Z,88.49
2022-12-20T01:29:27.651Z,88.35
2022-12-20T01:31:57.981Z,87.95
2022-12-20T01:34:28.283Z,87.65
2022-12-20T01:36:58.605Z,87.60
2022-12-20T01:39:28.954Z,88.30
2022-12-20T01:42:01.933Z,88.46
2022-12-20T01:45:02.834Z,88.00
2022-12-20T01:47:36.802Z,87.58
2022-12-20T01:50:10.272Z,87.23
2022-12-20T01:52:44.484Z,86.88
2022-12-20T01:55:20.302Z,86.68
2022-12-20T01:57:58.852Z,86.46
2022-12-20T02:00:29.918Z,85.94
2022-12-20T02:03:05.423Z,85.95
2022-12-20T02:05:43.093Z,86.47
2022-12-20T02:08:15.026Z,86.21
2022-12-20T02:11:05.061Z,85.87
2022-12-20T02:13:48.672Z,85.73
2022-12-20T02:16:26.399Z,85.96
2022-12-20T02:19:04.481Z,85.99
2022-12-20T02:21:40.551Z,86.06
2022-12-20T02:25:04.313Z,86.04
2022-12-20T02:27:57.608Z,86.24
2022-12-20T02:30:37.210Z,85.60
2022-12-20T02:33:10.715Z,85.27
2022-12-20T02:35:43.266Z,85.03
2022-12-20T02:38:35.572Z,84.75
2022-12-20T02:41:11.491Z,84.48
2022-12-20T02:43:57.984Z,84.26
2022-12-20T02:46:31.208Z,84.05
2022-12-20T02:49:06.983Z,83.88
2022-12-20T02:51:38.098Z,83.84
2022-12-20T02:54:08.584Z,83.66
2022-12-20T02:56:45.296Z,83.80
2022-12-20T02:59:22.907Z,83.53
2022-12-20T03:01:57.984Z,83.37
2022-12-20T03:04:33.065Z,83.31
2022-12-20T03:07:05.854Z,83.11
2022-12-20T03:09:39.743Z,82.94
2022-12-20T03:12:12.245Z,83.36
2022-12-20T03:14:43.657Z,83.58
2022-12-20T03:17:18.468Z,83.90
2022-12-20T03:19:48.911Z,84.11
2022-12-20T03:22:19.310Z,84.04
2022-12-20T03:24:49.871Z,84.05
2022-12-20T03:27:20.232Z,84.05
2022-12-20T03:29:50.788Z,84.18
2022-12-20T03:32:24.573Z,84.21
2022-12-20T03:34:55.146Z,84.56
2022-12-20T03:37:33.496Z,84.54
2022-12-20T03:40:06.788Z,84.64
2022-12-20T03:42:37.233Z,85.19
2022-12-20T03:45:09.702Z,85.36
2022-12-20T03:47:43.020Z,85.63
2022-12-20T03:50:15.451Z,86.25
2022-12-20T03:52:47.128Z,86.98
2022-12-20T03:55:17.610Z,88.16
2022-12-20T03:57:48.363Z,88.70
2022-12-20T04:00:28.465Z,88.83
2022-12-20T04:03:14.820Z,89.71
2022-12-20T04:05:45.274Z,90.09
2022-12-20T04:08:16.063Z,90.47
2022-12-20T04:10:58.758Z,91.24
2022-12-20T04:13:33.223Z,91.32
2022-12-20T04:16:03.957Z,91.52
2022-12-20T04:18:38.962Z,91.96
2022-12-20T04:21:10.066Z,92.46
2022-12-20T04:23:46.365Z,93.31
2022-12-20T04:26:16.673Z,93.42
2022-12-20T04:28:47.459Z,93.31
2022-12-20T04:31:23.463Z,93.43
2022-12-20T04:33:58.296Z,93.50
2022-12-20T04:36:29.202Z,93.77
2022-12-20T04:39:01.201Z,94.04
2022-12-20T04:41:35.857Z,94.04
2022-12-20T04:44:12.574Z,94.03
2022-12-20T04:46:43.051Z,94.66
2022-12-20T04:49:19.403Z,95.30
2022-12-20T04:51:49.767Z,96.03
2022-12-20T04:54:19.036Z,96.59
2022-12-20T04:57:00.993Z,97.16
2022-12-20T04:59:31.340Z,97.21
2022-12-20T05:02:01.837Z,97.26
2022-12-20T05:05:04.165Z,97.66
2022-12-20T05:07:39.782Z,98.34
2022-12-20T05:10:12.663Z,99.24
2022-12-20T05:12:43.717Z,99.02
2022-12-20T05:15:20.594Z,99.50
2022-12-20T05:17:51.024Z,99.79
2022-12-20T05:20:24.128Z,100.00
2022-12-20T05:23:06.895Z,100.00
2022-12-20T05:25:50.936Z,100.00
2022-12-20T05:28:21.409Z,100.00
2022-12-20T05:30:51.738Z,100.00
2022-12-20T05:33:22.273Z,100.00
2022-12-20T05:35:55.669Z,100.00
2022-12-20T05:38:26.522Z,100.00
2022-12-20T05:40:57.260Z,100.00
2022-12-20T05:43:28.181Z,100.00
2022-12-20T05:45:58.633Z,100.00
2022-12-20T05:48:37.331Z,100.00
2022-12-20T05:51:11.183Z,99.95
2022-12-20T05:53:59.340Z,99.56
2022-12-20T05:56:46.364Z,99.35
2022-12-20T05:59:17.899Z,99.08
2022-12-20T06:01:50.064Z,98.91
2022-12-20T06:04:20.759Z,99.09
2022-12-20T06:06:54.774Z,98.74
2022-12-20T06:09:25.146Z,98.50
2022-12-20T06:12:05.153Z,98.11
2022-12-20T06:14:37.229Z,98.49
2022-12-20T06:17:08.783Z,98.37
2022-12-20T06:19:40.243Z,98.16
2022-12-20T06:22:19.061Z,97.69
2022-12-20T06:24:56.328Z,97.26
2022-12-20T06:27:30.799Z,96.93
2022-12-20T06:30:16.015Z,96.56
2022-12-20T06:33:12.660Z,96.61
2022-12-20T06:35:43.785Z,96.95
2022-12-20T06:38:16.869Z,97.10
2022-12-20T06:40:47.676Z,97.02
2022-12-20T06:43:19.029Z,96.99
2022-12-20T06:45:50.257Z,96.83
2022-12-20T06:48:21.343Z,96.42
2022-12-20T06:50:56.120Z,95.55
2022-12-20T06:53:30.592Z,95.82
2022-12-20T06:56:00.883Z,96.20
2022-12-20T06:58:31.243Z,95.72
2022-12-20T07:01:01.606Z,95.76
2022-12-20T07:03:32.089Z,95.34
2022-12-20T07:06:02.705Z,95.45
2022-12-20T07:08:35.691Z,95.34
2022-12-20T07:11:10.633Z,95.18
2022-12-20T07:13:40.932Z,94.61
2022-12-20T07:16:11.583Z,93.81
2022-12-20T07:18:41.945Z,92.72
2022-12-20T07:21:16.892Z,92.35
2022-12-20T07:23:50.378Z,91.78
2022-12-20T07:26:20.754Z,91.05
2022-12-20T07:28:51.086Z,90.13
2022-12-20T07:31:21.480Z,90.41
2022-12-20T07:33:52.027Z,89.66
2022-12-20T07:36:22.451Z,89.13
2022-12-20T07:38:55.398Z,88.71
2022-12-20T07:41:25.824Z,88.60
2022-12-20T07:43:58.877Z,88.33
2022-12-20T07:46:29.635Z,88.14
2022-12-20T07:49:00.172Z,87.81
2022-12-20T07:51:35.069Z,87.36
2022-12-20T07:54:14.563Z,86.68
2022-12-20T07:56:48.896Z,87.13
2022-12-20T07:59:24.974Z,87.07
2022-12-20T08:02:00.697Z,86.52
2022-12-20T08:04:35.032Z,86.01
2022-12-20T08:07:06.338Z,86.26
2022-12-20T08:09:45.048Z,85.63
2022-12-20T08:12:19.095Z,85.04
2022-12-20T08:14:52.493Z,84.18
2022-12-20T08:17:22.821Z,83.31
2022-12-20T08:19:53.529Z,83.00
2022-12-20T08:22:24.367Z,81.69
2022-12-20T08:24:57.728Z,80.59
2022-12-20T08:27:28.020Z,79.87
2022-12-20T08:29:58.295Z,79.62
2022-12-20T08:32:29.524Z,79.12
2022-12-20T08:34:59.807Z,79.13
2022-12-20T08:37:30.088Z,79.36
2022-12-20T08:40:03.286Z,79.24
2022-12-20T08:42:33.601Z,78.65
2022-12-20T08:45:03.909Z,78.29
2022-12-20T08:47:34.466Z,78.25
2022-12-20T08:50:04.826Z,78.14
2022-12-20T08:52:35.197Z,78.18
2022-12-20T08:55:12.735Z,77.92
2022-12-20T08:57:43.495Z,77.74
2022-12-20T09:00:16.508Z,78.01
2022-12-20T09:02:48.363Z,77.80
2022-12-20T09:05:19.074Z,77.61
2022-12-20T09:07:49.468Z,76.96
2022-12-20T09:10:22.421Z,76.89
2022-12-20T09:12:52.810Z,76.94
2022-12-20T09:15:23.200Z,76.90
2022-12-20T09:17:53.595Z,76.90
2022-12-20T09:20:23.982Z,76.85
2022-12-20T09:22:54.502Z,76.77
2022-12-20T09:25:27.578Z,75.26
2022-12-20T09:27:58.206Z,74.92
2022-12-20T09:33:43.798Z,75.07
2022-12-20T09:36:15.697Z,74.94
2022-12-20T09:38:46.921Z,75.18
2022-12-20T09:41:33.019Z,74.96
2022-12-20T09:44:08.794Z,75.05
2022-12-20T09:46:39.176Z,74.71
2022-12-20T09:49:09.824Z,74.70
2022-12-20T09:52:09.065Z,74.79
2022-12-20T09:54:47.732Z,74.84
2022-12-20T09:57:30.309Z,75.18
2022-12-20T10:00:00.839Z,75.38
2022-12-20T10:02:58.433Z,75.71
2022-12-20T10:05:41.251Z,75.19
2022-12-20T10:08:24.292Z,75.09
2022-12-20T10:11:00.550Z,75.01
2022-12-20T10:13:54.391Z,75.10
2022-12-20T10:16:42.643Z,75.12
2022-12-20T10:19:54.264Z,75.14
2022-12-20T10:22:31.876Z,75.21
2022-12-20T10:25:14.000Z,75.39
2022-12-20T10:27:45.300Z,75.24
2022-12-20T10:30:23.267Z,75.53
2022-12-20T10:32:56.161Z,75.28
2022-12-20T10:35:31.468Z,75.38
2022-12-20T10:38:09.199Z,75.19
2022-12-20T10:43:46.427Z,74.78
2022-12-20T10:46:19.722Z,74.53
2022-12-20T10:48:51.887Z,73.97
2022-12-20T10:51:24.796Z,73.49
2022-12-20T10:53:59.866Z,72.81
2022-12-20T10:56:31.843Z,72.05
2022-12-20T10:59:05.185Z,71.50
2022-12-20T11:01:40.651Z,70.72
2022-12-20T11:04:30.792Z,70.07
2022-12-20T11:07:02.121Z,69.96
2022-12-20T11:09:36.096Z,69.87
2022-12-20T11:12:10.539Z,70.05
2022-12-20T11:14:42.088Z,69.77
2022-12-20T11:17:32.563Z,69.17
2022-12-20T11:20:28.824Z,68.38
2022-12-20T11:23:14.842Z,67.60
2022-12-20T11:26:04.279Z,66.78
2022-12-20T11:28:53.338Z,66.92
2022-12-20T11:31:39.065Z,66.67
2022-12-20T11:34:29.020Z,66.65
2022-12-20T11:37:21.348Z,66.82
2022-12-20T11:40:07.772Z,66.97
2022-12-20T11:42:55.640Z,66.41
2022-12-20T11:45:34.823Z,67.38
2022-12-20T11:48:33.738Z,68.06
2022-12-20T11:51:26.035Z,68.60
2022-12-20T11:54:04.354Z,69.22
2022-12-20T11:56:44.521Z,69.45
2022-12-20T11:59:23.911Z,69.52
2022-12-20T12:02:00.811Z,69.29
2022-12-20T12:04:35.569Z,69.32
2022-12-20T12:07:18.146Z,69.41
2022-12-20T12:09:59.737Z,69.69
2022-12-20T12:12:32.420Z,70.09
2022-12-20T12:15:14.345Z,70.28
2022-12-20T12:17:50.308Z,70.17
2022-12-20T12:20:34.997Z,70.03
2022-12-20T12:23:18.468Z,70.05
2022-12-20T12:25:48.855Z,69.96
2022-12-20T12:28:23.326Z,70.02
2022-12-20T12:31:01.323Z,70.20
2022-12-20T12:33:43.468Z,69.62
2022-12-20T12:36:49.800Z,69.65
2022-12-20T12:39:56.060Z,69.53
2022-12-20T12:43:01.071Z,68.80
2022-12-20T12:45:34.713Z,68.71
2022-12-20T12:48:10.545Z,68.58
2022-12-20T12:50:46.120Z,68.06
2022-12-20T12:53:21.255Z,68.71
2022-12-20T12:56:12.699Z,68.98
2022-12-20T12:58:49.041Z,69.02
2022-12-20T13:01:57.726Z,69.14
2022-12-20T13:04:31.887Z,69.57
2022-12-20T13:07:06.578Z,69.72
2022-12-20T13:09:44.342Z,69.44
2022-12-20T13:13:02.657Z,69.50
2022-12-20T13:15:55.611Z,68.71
2022-12-20T13:18:32.144Z,68.53
2022-12-20T13:21:39.491Z,68.38
2022-12-20T13:24:55.152Z,68.77
2022-12-20T13:27:33.119Z,69.02
2022-12-20T13:30:32.621Z,69.36
2022-12-20T13:33:24.584Z,69.12
2022-12-20T13:36:05.764Z,68.94
2022-12-20T13:38:52.864Z,68.53
2022-12-20T13:41:37.501Z,68.48
2022-12-20T13:44:45.958Z,68.55
2022-12-20T13:47:34.214Z,68.24
2022-12-20T13:50:20.626Z,68.19
2022-12-20T13:52:52.860Z,67.97
2022-12-20T13:55:34.795Z,67.91
2022-12-20T13:58:17.250Z,67.95
2022-12-20T14:00:48.539Z,68.03
2022-12-20T14:03:27.118Z,68.26
2022-12-20T14:06:02.513Z,68.71
2022-12-20T14:08:36.963Z,68.79
2022-12-20T14:11:18.508Z,68.45
2022-12-20T14:13:56.049Z,68.74
2022-12-20T14:16:29.228Z,68.72
2022-12-20T14:19:16.534Z,68.63
2022-12-20T14:21:49.869Z,68.43
2022-12-20T14:24:24.897Z,68.57
2022-12-20T14:26:56.443Z,68.35
2022-12-20T14:29:33.665Z,68.12
2022-12-20T14:32:04.104Z,67.90
2022-12-20T14:34:41.959Z,68.14
2022-12-20T14:37:41.357Z,67.72
2022-12-20T14:40:22.623Z,67.84
2022-12-20T14:42:52.721Z,67.71
2022-12-20T14:45:29.817Z,67.73
2022-12-20T14:48:06.767Z,67.89
2022-12-20T14:50:42.072Z,68.21
2022-12-20T14:53:22.836Z,68.57
2022-12-20T14:55:53.513Z,68.52
2022-12-20T14:58:30.213Z,68.24
2022-12-20T15:01:04.555Z,68.09
2022-12-20T15:03:34.924Z,68.42
2022-12-20T15:06:08.346Z,68.29
2022-12-20T15:08:41.388Z,68.59
2022-12-20T15:11:23.251Z,68.76
2022-12-20T15:13:57.249Z,68.37
2022-12-20T15:16:30.394Z,68.17
2022-12-20T15:19:03.172Z,68.00
2022-12-20T15:21:40.557Z,67.97
2022-12-20T15:24:16.776Z,67.79
2022-12-20T15:26:47.389Z,67.72
2022-12-20T15:29:20.137Z,68.66
2022-12-20T15:31:51.493Z,68.74
2022-12-20T15:34:28.153Z,69.02
2022-12-20T15:37:02.675Z,69.08
2022-12-20T15:39:33.507Z,69.12
2022-12-20T15:42:07.548Z,69.44
2022-12-20T15:44:39.503Z,69.42
2022-12-20T15:47:12.121Z,69.55
2022-12-20T15:49:49.460Z,69.57
2022-12-20T15:52:26.600Z,69.72
2022-12-20T15:54:56.933Z,69.79
2022-12-20T15:57:28.825Z,69.41
2022-12-20T16:00:01.683Z,69.37
2022-12-20T16:02:41.976Z,69.40
2022-12-20T16:05:16.372Z,69.16
2022-12-20T16:07:49.426Z,68.85
2022-12-20T16:10:20.114Z,68.89
2022-12-20T16:12:50.520Z,68.83
2022-12-20T16:15:25.959Z,68.65
2022-12-20T16:17:56.244Z,68.58
2022-12-20T16:20:27.695Z,68.54
2022-12-20T16:23:00.644Z,68.21
2022-12-20T16:25:34.808Z,68.72
2022-12-20T16:28:05.595Z,68.81
2022-12-20T16:30:35.990Z,68.45
2022-12-20T16:33:08.506Z,68.65
2022-12-20T16:35:40.016Z,69.24
2022-12-20T16:38:13.016Z,69.91
2022-12-20T16:40:43.351Z,69.98
2022-12-20T16:43:18.867Z,70.26
2022-12-20T16:45:49.206Z,69.74
2022-12-20T16:48:19.594Z,69.48
2022-12-20T16:50:49.984Z,69.63
2022-12-20T16:53:23.103Z,70.18
2022-12-20T16:55:53.603Z,70.09
2022-12-20T16:58:44.855Z,69.84
2022-12-20T17:01:19.143Z,69.54
2022-12-20T17:03:50.362Z,69.42
2022-12-20T17:06:21.852Z,69.80
2022-12-20T17:11:40.294Z,69.99
2022-12-20T17:14:12.763Z,70.88
2022-12-20T17:16:43.767Z,71.19
2022-12-20T17:19:14.130Z,70.48
2022-12-20T17:24:35.899Z,69.94
2022-12-20T17:27:06.459Z,69.80
2022-12-20T17:29:36.826Z,69.69
2022-12-20T17:32:22.801Z,69.36
2022-12-20T17:34:53.659Z,69.35
2022-12-20T17:37:25.130Z,68.97
2022-12-20T17:39:58.067Z,68.76
2022-12-20T17:42:31.371Z,68.75
2022-12-20T17:45:02.124Z,69.33
2022-12-20T17:47:32.412Z,68.12
2022-12-20T17:50:02.719Z,67.27
2022-12-20T17:52:33.081Z,66.95
2022-12-20T17:55:06.257Z,66.79
2022-12-20T17:57:36.645Z,67.18
2022-12-20T18:00:10.128Z,67.43
2022-12-20T18:02:40.584Z,67.61
2022-12-20T18:05:14.235Z,67.90
2022-12-20T18:07:44.599Z,68.11
2022-12-20T18:10:17.840Z,67.91
2022-12-20T18:12:48.295Z,68.02
2022-12-20T18:15:20.209Z,68.32
2022-12-20T18:17:50.574Z,68.14
2022-12-20T18:20:21.057Z,68.18
2022-12-20T18:22:51.623Z,68.22
2022-12-20T18:25:24.635Z,68.29
2022-12-20T18:27:54.949Z,68.15
2022-12-20T18:30:25.259Z,68.56
2022-12-20T18:32:56.046Z,68.48
2022-12-20T18:35:26.527Z,68.43
2022-12-20T18:37:57.407Z,68.52
2022-12-20T18:40:30.449Z,68.58
2022-12-20T18:43:05.754Z,68.35
2022-12-20T18:45:37.794Z,68.12
2022-12-20T18:48:08.373Z,68.10
2022-12-20T18:50:39.338Z,68.09
2022-12-20T18:53:09.755Z,68.11
2022-12-20T18:55:43.771Z,67.98
2022-12-20T18:58:14.469Z,67.92
2022-12-20T19:00:45.226Z,67.56
2022-12-20T19:03:15.820Z,67.70
2022-12-20T19:05:46.397Z,67.58
2022-12-20T19:08:16.745Z,67.48
2022-12-20T19:10:50.167Z,67.97
2022-12-20T19:13:21.365Z,68.05
2022-12-20T19:15:51.749Z,67.67
2022-12-20T19:18:22.157Z,67.48
2022-12-20T19:20:52.719Z,67.54
2022-12-20T19:23:23.517Z,67.89
2022-12-20T19:26:02.917Z,68.53
2022-12-20T19:28:35.475Z,68.62
2022-12-20T19:31:10.439Z,68.70
2022-12-20T19:33:45.514Z,68.68
2022-12-20T19:36:20.039Z,68.28
2022-12-20T19:38:53.199Z,68.42
2022-12-20T19:41:28.299Z,68.37
2022-12-20T19:43:59.134Z,68.49
2022-12-20T19:46:30.137Z,68.31
2022-12-20T19:49:01.895Z,68.41
2022-12-20T19:51:32.169Z,68.38
2022-12-20T19:54:03.030Z,68.31
2022-12-20T19:56:37.888Z,68.20
2022-12-20T19:59:09.267Z,67.93
2022-12-20T20:01:39.713Z,67.69
2022-12-20T20:04:10.296Z,67.78
2022-12-20T20:06:40.931Z,67.91
2022-12-20T20:09:11.564Z,68.02
2022-12-20T20:11:44.756Z,68.27
2022-12-20T20:14:16.755Z,68.44
2022-12-20T20:16:47.359Z,68.38
2022-12-20T20:19:17.811Z,68.68
2022-12-20T20:21:49.231Z,68.47
2022-12-20T20:24:19.734Z,68.36
2022-12-20T20:26:52.793Z,68.28
2022-12-20T20:29:23.652Z,68.19
2022-12-20T20:31:54.004Z,68.30
2022-12-20T20:34:24.397Z,68.29
2022-12-20T20:36:54.761Z,68.16
2022-12-20T20:39:25.090Z,68.51
2022-12-20T20:41:58.083Z,68.74
2022-12-20T20:44:28.392Z,68.84
2022-12-20T20:46:58.761Z,68.42
2022-12-20T20:49:29.336Z,68.12
2022-12-20T20:51:59.716Z,68.74
2022-12-20T20:54:30.162Z,69.10
2022-12-20T20:57:03.180Z,69.24
2022-12-20T20:59:33.569Z,68.83
2022-12-20T21:02:04.131Z,68.43
2022-12-20T21:04:34.886Z,68.66
2022-12-20T21:07:05.603Z,68.70
2022-12-20T21:09:36.191Z,69.24
2022-12-20T21:12:09.596Z,69.19
2022-12-20T21:15:19.955Z,68.79
2022-12-20T21:17:30.423Z,68.82
2022-12-20T21:20:00.781Z,69.06
2022-12-20T21:22:31.129Z,68.92
2022-12-20T21:25:01.449Z,68.62
2022-12-20T21:27:34.728Z,68.32
2022-12-20T21:30:05.884Z,68.28
2022-12-20T21:32:36.285Z,68.38
2022-12-20T21:35:06.999Z,68.23
2022-12-20T21:37:37.410Z,68.17
2022-12-20T21:40:10.036Z,68.52
2022-12-20T21:42:43.024Z,68.56
2022-12-20T21:45:15.515Z,68.68
2022-12-20T21:47:45.961Z,68.85
2022-12-20T21:50:17.131Z,68.86
2022-12-20T21:52:47.185Z,68.61
2022-12-20T21:55:17.707Z,68.63
2022-12-20T21:57:50.813Z,68.26
2022-12-20T22:00:23.145Z,68.66
2022-12-20T22:02:54.060Z,68.98
2022-12-20T22:05:24.479Z,68.94
2022-12-20T22:07:54.977Z,69.02
2022-12-20T22:10:27.354Z,69.07
2022-12-20T22:13:00.343Z,69.09
2022-12-20T22:15:30.718Z,69.17
2022-12-20T22:18:01.228Z,68.94
2022-12-20T22:20:31.576Z,69.20
2022-12-20T22:23:02.271Z,69.28
2022-12-20T22:25:32.763Z,69.38
2022-12-20T22:28:06.034Z,69.40
2022-12-20T22:30:37.193Z,69.23
2022-12-20T22:33:07.272Z,69.50
2022-12-20T22:35:37.771Z,69.37
2022-12-20T22:38:08.595Z,69.32
2022-12-20T22:40:38.956Z,69.08
2022-12-20T22:43:12.016Z,68.91
2022-12-20T22:45:42.386Z,68.73
2022-12-20T22:48:12.814Z,68.34
2022-12-20T22:50:43.225Z,68.30
2022-12-20T22:53:13.557Z,68.31
2022-12-20T22:55:44.026Z,68.21
2022-12-20T22:58:17.055Z,68.03
2022-12-20T23:00:47.434Z,68.29
2022-12-20T23:03:18.029Z,68.23
2022-12-20T23:05:55.757Z,68.08
2022-12-20T23:08:27.504Z,67.70
2022-12-20T23:11:10.485Z,67.87
2022-12-20T23:13:56.948Z,67.52
2022-12-20T23:16:27.603Z,67.49
2022-12-20T23:18:58.695Z,67.62
2022-12-20T23:21:41.702Z,67.58
2022-12-20T23:24:12.629Z,67.53
2022-12-20T23:26:44.530Z,67.40
2022-12-20T23:29:17.437Z,67.58
2022-12-20T23:31:47.874Z,67.67
2022-12-20T23:34:18.333Z,67.82
2022-12-20T23:36:48.711Z,68.01
2022-12-20T23:39:19.147Z,68.48
2022-12-20T23:41:49.647Z,68.70
2022-12-20T23:44:22.553Z,68.59
2022-12-20T23:46:52.899Z,69.01
2022-12-20T23:49:23.256Z,69.07
2022-12-20T23:51:53.600Z,68.79
2022-12-20T23:54:24.267Z,68.70
2022-12-20T23:56:54.683Z,68.71
2022-12-20T23:59:27.964Z,68.57
